Time;durP1;ratioP1;P1;durP2;ratioP2;P2;SDS_P1;SDS_P2;PMS_P1;PMS_P2;Temp;Humidity;BMP_temperature;BMP_pressure;BME280_temperature;BME280_humidity;BME280_pressure;Samples;Min_cycle;Max_cycle;Signal;HPM_P1;HPM_P2
2022/12/19 10:57:39;;;;;;;34.28;21.95;;;17.20;58.70;;;6.90;65.08;96418.69;5072663;28;20164;-56
2022/12/19 11:00:18;;;;;;;31.05;20.33;;;17.10;56.60;;;6.89;64.08;96413.59;5062531;28;20052;-56
2022/12/19 11:03:14;;;;;;;30.27;20.08;;;17.50;54.90;;;6.96;63.57;96393.16;5059331;28;20021;-55
2022/12/19 11:06:01;;;;;;;30.83;20.90;;;17.60;53.90;;;6.87;65.16;96391.84;5027361;28;20028;-55
2022/12/19 11:08:39;;;;;;;32.65;22.02;;;17.80;52.70;;;6.80;64.52;96397.22;5038402;28;20024;-54
2022/12/19 11:11:15;;;;;;;33.72;22.13;;;17.90;51.80;;;6.84;64.34;96392.28;5053407;28;20382;-55
2022/12/19 11:13:53;;;;;;;31.65;21.38;;;17.90;51.30;;;6.70;64.81;96386.31;5036246;28;20028;-56
2022/12/19 11:16:37;;;;;;;33.83;21.98;;;17.90;51.00;;;6.68;65.58;96391.03;5031090;28;20108;-54
2022/12/19 11:19:30;;;;;;;30.92;20.73;;;17.90;50.70;;;6.80;64.99;96383.97;5029951;28;20032;-56
2022/12/19 11:22:39;;;;;;;28.33;19.95;;;17.90;50.30;;;6.83;64.73;96382.69;5045630;28;20016;-55
2022/12/19 11:25:20;;;;;;;31.85;21.52;;;17.80;50.30;;;6.72;65.74;96390.34;5040265;28;20451;-53
2022/12/19 11:27:47;;;;;;;35.28;21.85;;;17.60;49.70;;;6.62;65.79;96382.13;5038609;28;20104;-51
2022/12/19 11:30:33;;;;;;;33.75;19.42;;;17.40;50.00;;;6.44;66.76;96384.75;5044463;28;20441;-51
2022/12/19 11:33:17;;;;;;;31.98;20.20;;;17.30;49.90;;;6.43;66.36;96381.28;5055544;28;20438;-51
2022/12/19 11:35:57;;;;;;;;;;;17.10;50.00;;;6.24;67.14;96366.41;5064793;28;20028;-50
2022/12/19 11:38:51;;;;;;;35.80;21.95;;;16.80;51.30;;;6.28;67.77;96374.72;5077685;28;19904;-50
2022/12/19 11:42:07;;;;;;;32.65;19.65;;;16.70;50.50;;;6.15;68.98;96363.22;5034898;28;20048;-52
2022/12/19 11:45:39;;;;;;;35.47;21.42;;;16.50;50.80;;;6.06;68.31;96358.44;5040630;28;20029;-54
2022/12/19 11:49:13;;;;;;;32.88;20.13;;;16.30;50.50;;;5.94;69.38;96358.31;5029728;28;20043;-54
2022/12/19 11:51:58;;;;;;;33.28;19.33;;;16.10;50.70;;;5.90;69.58;96359.75;5029828;28;20128;-50
2022/12/19 11:54:52;;;;;;;34.85;20.55;;;16.00;50.60;;;5.86;69.25;96355.91;5032520;28;20079;-54
2022/12/19 11:57:22;;;;;;;33.10;20.65;;;15.90;50.50;;;5.63;70.31;96359.94;5038295;28;20072;-48
2022/12/19 11:59:50;;;;;;;32.38;20.08;;;15.90;50.60;;;5.76;70.40;96356.41;5005063;28;20491;-50
2022/12/19 12:03:10;;;;;;;34.72;20.58;;;15.80;50.40;;;5.68;70.79;96354.03;5041638;28;20028;-53
2022/12/19 12:05:51;;;;;;;36.33;21.65;;;15.70;50.90;;;5.57;70.89;96351.03;5037141;28;20052;-51
2022/12/19 12:09:13;;;;;;;36.00;21.00;;;15.50;50.30;;;5.64;71.55;96344.88;5031274;28;20104;-51
2022/12/19 12:12:35;;;;;;;34.95;21.05;;;15.30;50.40;;;5.65;71.53;96351.81;5017888;28;20431;-52
2022/12/19 12:15:47;;;;;;;40.20;21.77;;;15.40;50.60;;;5.59;72.12;96342.09;5010325;28;20071;-51
2022/12/19 12:19:02;;;;;;;36.15;22.55;;;15.40;50.40;;;6.01;72.09;96337.91;5010339;28;20029;-53
2022/12/19 12:22:10;;;;;;;35.92;21.10;;;16.00;50.20;;;6.52;69.10;96336.00;5001341;28;20108;-53
2022/12/19 12:24:57;;;;;;;33.35;20.85;;;17.20;49.30;;;6.68;68.58;96335.44;5017045;28;20415;-49
2022/12/19 12:27:48;;;;;;;35.50;22.35;;;17.70;48.50;;;6.68;67.86;96336.22;5005469;28;20056;-52
2022/12/19 12:30:21;;;;;;;32.42;21.27;;;18.00;47.50;;;6.80;67.12;96332.81;5008355;28;20025;-54
2022/12/19 12:33:30;;;;;;;35.40;22.13;;;18.10;47.00;;;6.77;67.07;96326.16;4990581;28;20036;-51
2022/12/19 12:36:13;;;;;;;35.88;21.92;;;18.00;46.70;;;6.69;68.03;96326.44;5008214;28;20377;-50
2022/12/19 12:39:09;;;;;;;35.10;21.23;;;18.00;46.40;;;6.78;68.21;96335.72;5007721;28;20733;-53
2022/12/19 12:42:04;;;;;;;34.47;21.63;;;17.80;46.20;;;6.68;67.93;96332.78;5003125;28;20086;-52
2022/12/19 12:44:40;;;;;;;35.15;21.48;;;17.70;46.10;;;6.70;68.21;96325.41;5014760;28;20476;-53
2022/12/19 12:47:27;;;;;;;36.25;21.85;;;17.60;46.00;;;6.58;68.45;96324.53;5003462;28;20029;-52
2022/12/19 12:50:06;;;;;;;31.75;19.48;;;17.40;46.00;;;6.47;68.77;96318.94;5009347;28;20388;-52
2022/12/19 12:52:58;;;;;;;32.88;20.55;;;17.10;46.30;;;6.30;69.53;96325.03;5008319;28;20033;-54
2022/12/19 12:55:42;;;;;;;31.55;20.75;;;16.80;46.70;;;6.16;70.08;96321.72;5005727;28;20177;-52
2022/12/19 12:58:56;;;;;;;35.63;22.60;;;16.60;46.70;;;6.01;70.87;96322.84;4986032;28;20025;-57
2022/12/19 13:01:28;;;;;;;34.25;21.67;;;16.60;47.10;;;6.05;70.03;96317.13;5009786;28;20033;-57
2022/12/19 13:04:03;;;;;;;31.88;20.23;;;16.60;46.80;;;6.12;70.93;96321.34;5008460;28;20549;-56
2022/12/19 13:07:01;;;;;;;33.80;21.98;;;16.80;46.70;;;6.09;70.37;96308.56;5010408;28;20031;-54
2022/12/19 13:09:35;;;;;;;37.03;21.33;;;16.90;46.40;;;6.19;70.04;96314.16;5008024;28;20032;-54
2022/12/19 13:15:21;;;;;;;31.48;19.10;;;17.30;46.10;;;6.49;69.74;96306.31;5018205;28;20035;-55
2022/12/19 13:17:47;;;;;;;32.90;20.92;;;17.20;46.00;;;6.45;69.99;96314.91;5009515;28;20368;-58
2022/12/19 13:20:13;;;;;;;33.95;21.13;;;17.00;46.10;;;6.22;70.37;96307.63;5011615;28;20024;-55
2022/12/19 13:23:03;;;;;;;30.58;19.73;;;16.70;46.20;;;6.06;71.61;96306.34;4980438;28;20067;-57
2022/12/19 13:25:35;;;;;;;34.70;21.05;;;16.40;46.20;;;5.99;71.89;96302.97;4994662;28;20036;-57
2022/12/19 13:28:01;;;;;;;34.22;21.08;;;16.20;46.50;;;5.89;72.34;96303.44;4993681;28;20037;-54
2022/12/19 13:30:33;;;;;;;33.28;20.08;;;16.00;46.80;;;5.84;72.87;96297.97;4999678;28;20021;-56
2022/12/19 13:32:58;;;;;;;34.85;20.90;;;15.80;46.80;;;5.82;73.51;96286.78;4993425;28;20458;-58
2022/12/19 13:35:24;;;;;;;36.25;21.75;;;15.70;47.10;;;5.94;73.72;96286.94;4983402;28;20029;-53
2022/12/19 13:38:25;;;;;;;33.78;20.92;;;15.60;47.10;;;6.00;72.85;96286.06;4994592;28;20422;-59
2022/12/19 13:43:44;;;;;;;30.65;18.23;;;15.70;47.20;;;5.96;73.25;96287.53;4996268;28;20024;-52
2022/12/19 13:43:59;;;;;;;34.40;20.33;;;15.80;47.20;;;5.91;72.93;96285.50;4993076;28;20361;-55
2022/12/19 13:46:44;;;;;;;38.25;20.77;;;15.80;47.00;;;5.95;73.42;96293.81;4980464;28;20025;-55
2022/12/19 13:49:31;;;;;;;31.65;20.15;;;15.80;46.90;;;5.84;73.77;96284.75;4974445;28;20021;-58
2022/12/19 13:51:58;;;;;;;30.45;20.05;;;15.90;47.10;;;6.01;73.84;96283.19;4995229;28;20027;-53
2022/12/19 13:54:52;;;;;;;29.17;19.02;;;16.40;47.00;;;6.11;73.17;96293.28;4992826;28;20132;-54
2022/12/19 13:57:30;;;;;;;31.13;19.77;;;16.70;46.50;;;6.16;72.83;96298.72;4993090;28;20493;-57
2022/12/19 14:00:14;;;;;;;27.20;17.40;;;16.70;46.20;;;6.12;72.83;96300.19;5003619;28;20033;-56
2022/12/19 14:02:59;;;;;;;31.52;19.27;;;16.60;46.20;;;5.92;73.23;96295.06;4995905;28;20038;-55
2022/12/19 14:05:39;;;;;;;32.45;20.23;;;16.20;46.30;;;5.67;74.67;96291.59;4988737;28;20480;-58
2022/12/19 14:08:16;;;;;;;33.17;18.77;;;15.70;46.40;;;5.64;74.70;96295.50;4989522;28;20026;-56
2022/12/19 14:10:48;;;;;;;31.77;18.95;;;15.50;46.90;;;5.73;74.52;96298.66;4989025;28;20021;-55
2022/12/19 14:16:15;;;;;;;30.63;18.17;;;15.40;47.40;;;5.64;74.98;96313.16;4974941;28;20057;-54
2022/12/19 14:18:49;;;;;;;28.73;17.83;;;15.50;47.40;;;5.63;75.60;96307.06;4983344;28;20110;-56
2022/12/19 14:21:22;;;;;;;28.60;18.13;;;15.60;47.50;;;5.53;76.22;96320.78;4989164;28;20757;-55
2022/12/19 14:23:51;;;;;;;25.35;17.33;;;15.70;47.50;;;5.55;76.51;96308.16;4991865;28;20983;-54
2022/12/19 14:26:30;;;;;;;30.23;17.40;;;15.80;47.50;;;5.68;76.12;96317.81;4989986;28;20063;-56
2022/12/19 14:29:13;;;;;;;30.08;17.65;;;15.70;47.20;;;5.67;75.50;96315.38;4988903;28;20026;-55
2022/12/19 14:31:42;;;;;;;29.73;17.33;;;15.70;47.20;;;5.58;75.41;96322.78;4988115;28;20037;-55
2022/12/19 14:34:32;;;;;;;27.85;16.92;;;15.50;47.30;;;5.49;75.70;96316.94;4993631;28;20026;-57
2022/12/19 14:37:01;;;;;;;27.58;17.38;;;15.20;47.30;;;5.29;77.04;96327.63;4994293;28;20034;-57
2022/12/19 14:39:34;;;;;;;26.92;16.65;;;14.90;47.60;;;5.10;77.52;96325.91;4990991;28;20182;-56
2022/12/19 14:44:56;;;;;;;32.13;16.55;;;14.30;48.00;;;4.79;78.63;96316.94;4993706;28;20098;-53
2022/12/19 14:47:36;;;;;;;23.73;14.02;;;13.80;48.20;;;4.55;79.62;96318.47;4977222;28;20018;-55
2022/12/19 14:50:35;;;;;;;25.83;14.80;;;13.30;48.50;;;4.29;79.93;96321.16;4988952;28;20025;-52
2022/12/19 14:53:22;;;;;;;158.95;49.10;;;12.60;48.80;;;3.96;81.69;96322.03;4991660;28;20029;-55
2022/12/19 14:56:22;;;;;;;85.65;33.72;;;12.10;49.40;;;3.61;83.55;96321.47;4995774;28;20042;-51
2022/12/19 14:58:57;;;;;;;34.00;16.80;;;11.50;49.90;;;3.31;84.59;96310.47;4996630;28;20025;-54
2022/12/19 15:01:33;;;;;;;39.92;17.80;;;11.00;50.40;;;3.12;85.75;96317.34;4972121;28;20029;-54
2022/12/19 15:04:15;;;;;;;29.38;16.13;;;10.50;51.00;;;2.96;86.49;96321.97;4981458;28;20730;-53
2022/12/19 15:06:45;;;;;;;27.83;15.75;;;10.10;51.60;;;2.77;87.42;96326.16;4985259;28;20036;-56
2022/12/19 15:09:16;;;;;;;32.60;15.65;;;9.70;52.10;;;2.55;87.77;96322.81;4987994;28;20021;-51
2022/12/19 15:14:47;;;;;;;34.53;15.73;;;9.10;53.00;;;1.99;92.63;96309.78;4986804;28;20118;-57
2022/12/19 15:17:24;;;;;;;31.35;15.30;;;8.60;53.40;;;1.86;93.30;96309.72;4985423;28;20041;-57
2022/12/19 15:20:04;;;;;;;33.28;15.55;;;8.40;54.00;;;1.76;94.07;96309.25;4987558;28;20025;-57
2022/12/19 15:22:30;;;;;;;33.47;15.40;;;8.00;54.40;;;1.54;95.33;96304.03;4988420;28;20029;-56
2022/12/19 15:25:06;;;;;;;42.35;16.92;;;7.80;54.70;;;1.36;96.84;96307.09;4989285;28;20052;-52
2022/12/19 15:27:32;;;;;;;36.72;16.85;;;7.50;55.20;;;1.29;97.54;96313.31;4993538;28;20053;-53
2022/12/19 15:30:13;;;;;;;40.95;18.05;;;7.30;55.50;;;1.18;98.51;96305.91;5009268;28;20022;-55
2022/12/19 15:32:41;;;;;;;45.58;17.88;;;7.00;56.00;;;1.09;100.00;96302.59;4987650;28;20646;-51
2022/12/19 15:35:17;;;;;;;43.78;19.05;;;6.80;56.40;;;0.98;100.00;96303.94;4999902;28;20423;-53
2022/12/19 15:37:44;;;;;;;38.22;18.00;;;6.70;56.90;;;0.92;99.82;96302.03;4974239;28;20115;-51
2022/12/19 15:40:17;;;;;;;36.42;16.50;;;6.50;57.10;;;0.79;100.00;96299.28;4970355;28;20025;-50
2022/12/19 15:42:52;;;;;;;40.10;17.85;;;6.30;57.40;;;0.69;100.00;96310.09;5006938;28;20025;-50
2022/12/19 15:45:24;;;;;;;43.67;17.95;;;6.20;57.80;;;0.64;100.00;96307.19;5001368;28;20104;-50
2022/12/19 15:47:52;;;;;;;42.83;18.55;;;6.10;58.10;;;0.68;100.00;96313.69;4985330;28;20029;-51
2022/12/19 15:50:28;;;;;;;38.80;17.90;;;6.00;58.40;;;0.63;100.00;96319.50;4979969;28;20076;-53
2022/12/19 15:53:01;;;;;;;39.42;17.35;;;5.90;58.60;;;0.54;100.00;96311.91;4987271;28;20029;-52
2022/12/19 15:55:35;;;;;;;39.50;17.58;;;5.80;58.70;;;0.48;100.00;96315.28;4988029;28;20029;-53
2022/12/19 15:58:11;;;;;;;48.70;21.27;;;5.70;59.00;;;0.46;100.00;96320.69;4989005;28;20105;-51
2022/12/19 16:00:42;;;;;;;40.45;19.30;;;5.70;59.30;;;0.38;100.00;96319.00;4968045;28;20500;-52
2022/12/19 16:03:19;;;;;;;40.17;18.85;;;5.60;59.40;;;0.41;100.00;96309.94;4987777;28;20018;-52
2022/12/19 16:05:56;;;;;;;34.75;16.40;;;5.60;59.80;;;0.42;100.00;96314.19;4990294;28;20400;-51
2022/12/19 16:08:27;;;;;;;34.95;15.95;;;5.60;60.00;;;0.40;100.00;96314.34;5008403;28;20108;-51
2022/12/19 16:10:56;;;;;;;37.97;18.20;;;5.50;60.00;;;0.41;100.00;96310.75;5005732;28;20046;-55
2022/12/19 16:13:28;;;;;;;34.70;15.35;;;5.50;60.40;;;0.39;100.00;96312.75;4963534;28;20119;-51
2022/12/19 16:15:56;;;;;;;35.40;16.02;;;5.50;60.50;;;0.36;100.00;96304.44;4971093;28;20074;-54
2022/12/19 16:18:32;;;;;;;30.70;15.00;;;5.50;60.60;;;0.30;100.00;96298.09;4991724;28;20488;-54
2022/12/19 16:21:24;;;;;;;32.70;16.23;;;5.50;60.70;;;0.28;100.00;96304.53;4990774;28;20567;-52
2022/12/19 16:23:53;;;;;;;32.67;15.15;;;5.50;61.00;;;0.31;100.00;96298.91;4988716;28;20429;-52
2022/12/19 16:26:36;;;;;;;27.27;13.27;;;5.40;61.00;;;0.33;100.00;96302.97;4986975;28;20064;-53
2022/12/19 16:29:27;;;;;;;;;;;5.50;61.60;;;0.45;100.00;96305.97;4989890;28;20036;-52
2022/12/19 16:31:54;;;;;;;22.75;11.18;;;5.50;61.30;;;0.52;100.00;96304.22;4991579;28;19905;-49
2022/12/19 16:34:23;;;;;;;25.55;11.93;;;5.50;61.70;;;0.70;100.00;96298.59;4984750;28;20057;-51
2022/12/19 16:36:50;;;;;;;19.48;9.68;;;5.60;62.20;;;0.75;100.00;96303.25;4973689;28;20025;-55
2022/12/19 16:39:17;;;;;;;17.88;10.05;;;5.60;62.20;;;0.77;100.00;96301.28;4989883;28;20021;-53
2022/12/19 16:41:50;;;;;;;17.77;9.43;;;5.70;62.40;;;0.95;100.00;96300.88;4983696;28;20408;-53
2022/12/19 16:44:22;;;;;;;13.95;8.40;;;5.80;62.90;;;1.06;100.00;96295.91;4972414;28;20022;-53
2022/12/19 16:46:51;;;;;;;14.15;7.80;;;5.90;63.00;;;1.14;100.00;96301.03;4973813;28;20033;-52
2022/12/19 16:49:24;;;;;;;15.30;7.82;;;5.90;62.90;;;1.18;100.00;96293.59;4973881;28;20049;-53
2022/12/19 16:54:28;;;;;;;14.63;7.22;;;6.10;62.90;;;1.18;100.00;96285.72;4964730;28;20181;-51
2022/12/19 16:56:54;;;;;;;13.25;6.60;;;6.10;62.70;;;1.14;100.00;96289.75;4949737;28;20038;-55
2022/12/19 16:59:48;;;;;;;9.82;5.70;;;6.10;62.60;;;1.26;100.00;96295.31;4967108;28;20026;-57
2022/12/19 17:02:31;;;;;;;10.68;6.05;;;6.20;62.90;;;1.33;100.00;96291.72;4927422;28;20042;-54
2022/12/19 17:04:57;;;;;;;11.30;6.72;;;6.20;62.90;;;1.35;100.00;96286.31;4953888;28;20576;-53
2022/12/19 17:07:23;;;;;;;10.27;5.40;;;6.20;62.80;;;1.32;100.00;96290.13;4953720;28;20148;-56
2022/12/19 17:09:49;;;;;;;31.02;13.05;;;6.30;62.80;;;1.29;100.00;96294.94;4954554;28;20022;-54
2022/12/19 17:12:17;;;;;;;52.63;18.95;;;6.20;62.70;;;1.31;100.00;96277.97;4971157;28;20045;-53
2022/12/19 17:14:44;;;;;;;11.68;6.43;;;6.30;62.90;;;1.33;100.00;96286.47;4954391;28;20030;-55
2022/12/19 17:17:14;;;;;;;10.43;5.75;;;6.30;62.90;;;1.27;100.00;96289.84;4937990;28;20038;-54
2022/12/19 17:19:44;;;;;;;9.43;5.47;;;6.30;62.90;;;1.21;100.00;96287.97;4937363;28;20022;-57
2022/12/19 17:22:16;;;;;;;7.95;4.72;;;6.20;62.90;;;1.14;100.00;96290.56;4952589;28;20022;-52
2022/12/19 17:24:46;;;;;;;9.88;4.82;;;6.20;62.80;;;1.08;100.00;96290.50;4960758;28;20720;-53
2022/12/19 17:27:13;;;;;;;9.40;5.65;;;6.20;62.70;;;1.03;100.00;96285.78;4955215;28;20158;-52
2022/12/19 17:29:39;;;;;;;8.45;5.03;;;6.20;62.70;;;0.97;100.00;96283.91;4954911;28;20918;-52
2022/12/19 17:32:08;;;;;;;11.30;6.10;;;6.20;62.80;;;1.00;100.00;96290.59;4963098;28;20499;-53
2022/12/19 17:34:35;;;;;;;10.07;5.88;;;6.10;62.70;;;0.96;100.00;96281.50;4954522;28;20030;-55
2022/12/19 17:37:04;;;;;;;10.70;5.75;;;6.20;62.90;;;0.91;100.00;96282.06;4932097;28;20037;-53
2022/12/19 17:39:33;;;;;;;9.75;5.50;;;6.10;63.00;;;0.87;100.00;96280.78;4969358;28;20117;-53
2022/12/19 17:42:20;;;;;;;11.57;5.55;;;6.10;63.00;;;0.82;100.00;96275.31;4950776;28;20026;-50
2022/12/19 17:44:46;;;;;;;10.55;5.95;;;6.10;63.10;;;0.79;100.00;96280.94;4955176;28;20029;-54
2022/12/19 17:47:18;;;;;;;10.55;5.38;;;6.00;63.00;;;0.74;100.00;96280.66;4950768;28;20128;-55
2022/12/19 17:49:47;;;;;;;11.00;5.68;;;6.00;63.10;;;0.67;100.00;96277.97;4956562;28;20034;-54
2022/12/19 17:52:18;;;;;;;9.65;5.18;;;6.00;63.20;;;0.59;100.00;96280.69;4940017;28;20045;-51
2022/12/19 17:54:45;;;;;;;9.82;5.10;;;5.90;63.20;;;0.57;100.00;96282.72;4953522;28;20049;-51
2022/12/19 17:57:17;;;;;;;11.45;5.43;;;5.90;63.20;;;0.57;100.00;96283.53;4947416;28;20056;-50
2022/12/19 17:59:45;;;;;;;9.70;5.20;;;5.90;63.40;;;0.52;100.00;96279.81;4937957;28;20030;-50
2022/12/19 18:02:27;;;;;;;15.25;8.70;;;5.80;63.30;;;0.42;100.00;96278.28;4970455;28;20032;-52
2022/12/19 18:04:53;;;;;;;11.93;6.45;;;5.80;63.50;;;0.43;100.00;96282.53;4976084;28;20033;-50
2022/12/19 18:07:26;;;;;;;10.40;5.93;;;5.70;63.50;;;0.46;100.00;96282.16;4935333;28;20034;-51
2022/12/19 18:09:54;;;;;;;10.68;5.93;;;5.70;63.70;;;0.50;100.00;96277.38;4952332;28;20073;-49
2022/12/19 18:12:20;;;;;;;9.10;5.75;;;5.70;63.80;;;0.52;100.00;96274.56;4951597;28;20089;-53
2022/12/19 18:15:01;;;;;;;12.43;6.03;;;5.70;64.00;;;0.52;100.00;96269.34;4935453;28;20033;-50
2022/12/19 18:17:27;;;;;;;12.57;5.97;;;5.70;64.10;;;0.48;100.00;96273.31;4967168;28;20033;-52
2022/12/19 18:19:56;;;;;;;11.45;5.60;;;5.70;64.10;;;0.46;100.00;96270.88;4970346;28;20030;-50
2022/12/19 18:22:28;;;;;;;10.07;5.63;;;5.70;64.20;;;0.44;100.00;96271.06;4967736;28;20026;-50
2022/12/19 18:24:55;;;;;;;13.85;7.30;;;5.60;64.30;;;0.48;100.00;96263.66;4962259;28;20049;-50
2022/12/19 18:27:21;;;;;;;11.25;6.78;;;5.60;64.40;;;0.54;100.00;96268.16;4953219;28;20026;-50
2022/12/19 18:29:53;;;;;;;14.50;7.45;;;5.70;64.70;;;0.63;100.00;96271.47;4953544;28;20022;-55
2022/12/19 18:32:20;;;;;;;10.60;5.97;;;5.70;64.90;;;0.68;100.00;96269.91;4970112;28;20041;-52
2022/12/19 18:34:46;;;;;;;16.17;7.50;;;5.70;65.00;;;0.78;100.00;96279.28;4963096;28;20029;-51
2022/12/19 18:37:14;;;;;;;14.90;7.93;;;5.80;65.20;;;0.85;100.00;96275.75;4970672;28;20113;-50
2022/12/19 18:39:40;;;;;;;12.00;7.38;;;5.80;65.30;;;0.90;100.00;96268.13;4940831;28;20018;-51
2022/12/19 18:42:24;;;;;;;12.07;6.68;;;5.90;65.40;;;0.97;100.00;96267.38;4968902;28;20033;-49
2022/12/19 18:44:50;;;;;;;12.20;6.95;;;5.90;65.40;;;1.01;100.00;96263.38;4966607;28;20042;-50
2022/12/19 18:47:24;;;;;;;15.25;6.97;;;6.00;65.30;;;1.04;100.00;96265.63;4969527;28;20087;-49
2022/12/19 18:49:54;;;;;;;31.27;16.45;;;6.00;65.40;;;1.07;100.00;96262.63;4971049;28;20060;-50
2022/12/19 18:52:20;;;;;;;12.35;7.32;;;6.10;65.40;;;1.10;100.00;96268.31;4963222;28;20033;-50
2022/12/19 18:54:45;;;;;;;16.35;9.82;;;6.10;65.30;;;1.13;100.00;96260.06;4952460;28;20026;-49
2022/12/19 18:57:14;;;;;;;15.68;8.23;;;6.10;65.30;;;1.15;100.00;96259.88;4969105;28;20674;-48
2022/12/19 18:59:46;;;;;;;10.75;6.88;;;6.10;65.30;;;1.14;100.00;96258.25;4969124;28;20061;-50
2022/12/19 19:02:26;;;;;;;10.30;6.10;;;6.20;65.30;;;1.19;100.00;96255.84;4969394;28;20118;-47
2022/12/19 19:04:54;;;;;;;11.77;6.93;;;6.20;65.30;;;1.22;100.00;96263.34;4936788;28;20030;-49
2022/12/19 19:07:20;;;;;;;11.05;6.20;;;6.20;65.20;;;1.25;100.00;96257.72;4952248;28;20117;-51
2022/12/19 19:09:46;;;;;;;8.93;5.88;;;6.30;65.30;;;1.23;100.00;96251.06;4952438;28;20552;-47
2022/12/19 19:12:12;;;;;;;14.68;7.65;;;6.30;65.20;;;1.18;100.00;96259.50;4967713;28;20030;-52
2022/12/19 19:14:38;;;;;;;12.55;7.05;;;6.30;65.10;;;1.21;100.00;96256.50;4968763;28;20037;-50
2022/12/19 19:17:16;;;;;;;13.13;6.47;;;6.30;65.10;;;1.22;100.00;96254.66;4969290;28;20037;-48
2022/12/19 19:19:42;;;;;;;12.68;6.72;;;6.30;65.10;;;1.24;100.00;96257.94;4942690;28;20041;-50
2022/12/19 19:22:08;;;;;;;12.43;6.85;;;6.30;65.10;;;1.24;100.00;96253.47;4976698;28;20034;-50
2022/12/19 19:24:34;;;;;;;12.38;6.30;;;6.40;65.20;;;1.27;100.00;96247.84;4973668;28;20050;-48
2022/12/19 19:27:03;;;;;;;14.68;6.20;;;6.30;65.20;;;1.31;100.00;96243.84;4972482;28;20087;-48
2022/12/19 19:29:29;;;;;;;8.98;5.45;;;6.40;66.00;;;1.30;100.00;96250.09;4973018;28;20488;-49
2022/12/19 19:31:55;;;;;;;12.63;7.47;;;6.40;65.20;;;1.31;100.00;96243.03;4972684;28;20030;-53
2022/12/19 19:34:34;;;;;;;15.55;9.43;;;6.40;65.20;;;1.34;100.00;96253.97;4939030;28;20029;-47
2022/12/19 19:37:06;;;;;;;13.13;6.55;;;6.40;65.30;;;1.37;100.00;96244.91;4955249;28;20037;-52
2022/12/19 19:39:34;;;;;;;16.23;7.97;;;6.40;66.00;;;1.43;100.00;96243.34;4955487;28;20030;-48
2022/12/19 19:42:01;;;;;;;9.05;5.00;;;6.50;65.30;;;1.42;100.00;96233.84;4955123;28;20034;-48
2022/12/19 19:44:28;;;;;;;8.52;4.78;;;6.50;65.20;;;1.41;100.00;96240.91;4955121;28;20034;-51
2022/12/19 19:46:54;;;;;;;8.48;4.97;;;6.50;65.20;;;1.44;100.00;96239.69;4972946;28;20388;-48
2022/12/19 19:49:24;;;;;;;7.93;4.82;;;6.50;65.20;;;1.46;100.00;96241.13;4973960;28;20033;-48
2022/12/19 19:51:50;;;;;;;8.82;5.20;;;6.50;65.20;;;1.48;100.00;96240.97;4919602;28;20548;-47
2022/12/19 19:54:21;;;;;;;9.07;5.00;;;6.60;65.20;;;1.44;100.00;96229.19;4959719;28;20045;-48
2022/12/19 19:56:50;;;;;;;10.73;6.15;;;6.60;65.10;;;1.43;100.00;96236.25;4955758;28;20137;-50
2022/12/19 19:59:16;;;;;;;8.10;5.28;;;6.60;65.10;;;1.40;100.00;96236.66;4973608;28;20121;-47
2022/12/19 20:01:42;;;;;;;10.00;5.75;;;6.60;65.00;;;1.40;100.00;96231.41;4972368;28;20062;-47
2022/12/19 20:04:08;;;;;;;12.23;6.05;;;6.60;65.00;;;1.41;100.00;96237.44;4954600;28;20496;-49
2022/12/19 20:06:39;;;;;;;8.30;5.13;;;6.50;64.90;;;1.37;100.00;96232.59;4955036;28;20499;-54
2022/12/19 20:09:05;;;;;;;14.45;6.43;;;6.50;64.90;;;1.36;100.00;96236.22;4972261;28;20117;-49
2022/12/19 20:11:31;;;;;;;11.40;6.43;;;6.50;64.90;;;1.36;100.00;96227.53;4971833;28;20307;-49
2022/12/19 20:13:57;;;;;;;15.05;8.85;;;6.50;65.00;;;1.32;99.81;96231.56;4970265;28;20030;-48
2022/12/19 20:16:23;;;;;;;12.50;5.90;;;6.50;65.00;;;1.29;99.83;96231.94;4971346;28;20052;-47
2022/12/19 20:18:51;;;;;;;11.43;7.30;;;6.50;64.90;;;1.24;99.32;96223.81;4939065;28;20026;-53
2022/12/19 20:21:20;;;;;;;12.60;6.10;;;6.50;64.90;;;1.19;99.71;96220.94;4970837;28;20400;-50
2022/12/19 20:23:46;;;;;;;8.05;4.72;;;6.40;64.80;;;1.14;100.00;96217.06;4970533;28;20026;-47
2022/12/19 20:26:15;;;;;;;10.18;5.07;;;6.40;64.80;;;1.05;100.00;96212.97;4972318;28;20037;-46
2022/12/19 20:28:44;;;;;;;7.53;4.72;;;6.40;64.80;;;0.96;100.00;96213.28;4969825;28;20069;-48
2022/12/19 20:31:10;;;;;;;10.02;5.22;;;6.30;64.70;;;0.89;100.00;96210.59;4954509;28;20056;-48
2022/12/19 20:33:39;;;;;;;12.23;6.80;;;6.20;64.70;;;0.81;100.00;96208.91;4971301;28;20069;-46
2022/12/19 20:36:11;;;;;;;13.82;6.95;;;6.20;64.80;;;0.82;100.00;96205.31;4972265;28;20084;-47
2022/12/19 20:38:41;;;;;;;11.13;5.83;;;6.10;64.90;;;0.85;100.00;96209.38;4952990;28;20045;-49
2022/12/19 20:41:07;;;;;;;14.75;7.65;;;6.10;65.00;;;0.83;100.00;96217.41;4936482;28;20061;-47
2022/12/19 20:43:40;;;;;;;13.35;7.07;;;6.10;65.20;;;0.82;100.00;96220.22;4934228;28;20029;-47
2022/12/19 20:46:16;;;;;;;14.40;6.53;;;6.00;65.30;;;0.80;100.00;96206.47;4971030;28;20034;-53
2022/12/19 20:48:43;;;;;;;11.45;6.40;;;6.00;65.40;;;0.77;100.00;96214.72;4956988;28;20054;-54
2022/12/19 20:51:19;;;;;;;13.00;6.38;;;6.00;65.30;;;0.73;100.00;96210.88;4966103;28;20446;-50
2022/12/19 20:53:47;;;;;;;15.00;6.38;;;6.00;65.50;;;0.70;100.00;96206.81;4950562;28;20047;-49
2022/12/19 20:56:17;;;;;;;12.13;5.78;;;6.00;65.40;;;0.69;100.00;96208.63;4951141;28;20038;-49
2022/12/19 20:58:45;;;;;;;11.80;6.30;;;6.00;65.50;;;0.64;100.00;96208.34;4951079;28;20022;-48
2022/12/19 21:01:19;;;;;;;9.55;5.90;;;6.00;65.50;;;0.60;100.00;96208.94;4952874;28;20042;-51
2022/12/19 21:03:52;;;;;;;9.95;5.93;;;5.90;65.60;;;0.65;100.00;96212.59;4951325;28;20033;-48
2022/12/19 21:06:21;;;;;;;8.77;4.40;;;5.90;65.70;;;0.69;100.00;96206.00;4951061;28;20511;-47
2022/12/19 21:08:51;;;;;;;10.57;5.90;;;5.90;65.70;;;0.77;100.00;96212.91;4950180;28;20046;-46
2022/12/19 21:11:17;;;;;;;10.73;5.95;;;5.90;66.00;;;0.80;100.00;96209.09;4962057;28;20081;-48
2022/12/19 21:13:43;;;;;;;10.93;5.80;;;6.00;66.20;;;0.83;100.00;96206.09;4947802;28;20035;-48
2022/12/19 21:16:15;;;;;;;11.32;6.13;;;6.00;66.20;;;0.84;100.00;96200.66;4956853;28;20038;-51
2022/12/19 21:18:47;;;;;;;12.45;6.05;;;6.00;66.20;;;0.83;100.00;96199.03;4955439;28;20026;-47
2022/12/19 21:21:20;;;;;;;10.65;6.40;;;6.00;66.10;;;0.86;100.00;96203.91;4939398;28;20580;-49
2022/12/19 21:23:51;;;;;;;11.32;7.10;;;5.90;66.10;;;0.85;100.00;96204.13;4966510;28;20030;-46
2022/12/19 21:26:23;;;;;;;13.85;7.32;;;6.00;66.20;;;0.86;100.00;96201.28;4962816;28;20552;-51
2022/12/19 21:28:49;;;;;;;12.85;6.45;;;6.00;66.20;;;0.87;100.00;96195.03;4955826;28;20381;-47
2022/12/19 21:31:23;;;;;;;10.50;5.65;;;6.00;66.20;;;0.86;100.00;96198.66;4951597;28;20023;-46
2022/12/19 21:34:01;;;;;;;9.50;5.80;;;6.00;66.30;;;0.88;100.00;96203.75;4950061;28;20030;-46
2022/12/19 21:36:29;;;;;;;10.73;5.88;;;6.00;66.20;;;0.84;100.00;96207.72;4944231;28;20030;-49
2022/12/19 21:39:01;;;;;;;11.10;6.10;;;6.00;66.20;;;0.84;100.00;96205.09;4949194;28;20027;-53
2022/12/19 21:41:28;;;;;;;9.38;5.90;;;6.00;66.20;;;0.80;100.00;96196.81;4949111;28;20066;-46
2022/12/19 21:43:56;;;;;;;12.63;6.20;;;6.00;66.10;;;0.76;100.00;96203.44;4945474;28;20030;-47
2022/12/19 21:46:31;;;;;;;10.05;5.80;;;6.00;66.10;;;0.74;100.00;96208.03;4953691;28;20725;-47
2022/12/19 21:49:02;;;;;;;11.68;5.72;;;6.00;66.10;;;0.75;100.00;96206.22;4950088;28;20030;-47
2022/12/19 21:51:30;;;;;;;9.93;5.53;;;6.00;66.10;;;0.71;100.00;96204.97;4944745;28;20030;-52
2022/12/19 21:54:02;;;;;;;9.82;5.90;;;6.00;66.10;;;0.68;100.00;96206.16;4948492;28;20390;-46
2022/12/19 21:56:38;;;;;;;11.13;6.45;;;5.90;66.10;;;0.67;100.00;96202.72;4949352;28;20081;-47
2022/12/19 21:59:13;;;;;;;13.15;6.25;;;5.90;66.20;;;0.63;100.00;96198.88;4942579;28;20043;-48
2022/12/19 22:01:41;;;;;;;12.05;6.45;;;5.80;66.20;;;0.61;100.00;96203.47;4950931;28;20105;-53
2022/12/19 22:04:19;;;;;;;11.55;6.75;;;5.80;66.20;;;0.61;100.00;96206.09;4950808;28;20160;-48